Time;durP1;ratioP1;P1;durP2;ratioP2;P2;SDS_P1;SDS_P2;PMS_P1;PMS_P2;Temp;Humidity;BMP_temperature;BMP_pressure;BME280_temperature;BME280_humidity;BME280_pressure;Samples;Min_cycle;Max_cycle;Signal;HPM_P1;HPM_P2
2021/01/23 00:00:25;;;;;;;15.37;10.57;;;1.90;99.90;;;;;;4975821;28;20237;-72
2021/01/23 00:02:51;;;;;;;17.55;10.68;;;2.10;99.90;;;;;;4989117;28;20417;-72
2021/01/23 00:05:19;;;;;;;14.45;9.80;;;2.00;99.90;;;;;;4974583;28;20186;-73
2021/01/23 00:07:48;;;;;;;13.07;10.15;;;2.00;99.90;;;;;;4984734;28;20972;-73
2021/01/23 00:10:14;;;;;;;14.90;10.77;;;1.90;99.90;;;;;;5005765;28;20186;-73
2021/01/23 00:12:40;;;;;;;13.25;10.88;;;1.80;99.90;;;;;;5003887;28;20186;-73
2021/01/23 00:15:08;;;;;;;15.43;10.90;;;1.80;99.90;;;;;;4991739;28;20236;-73
2021/01/23 00:17:34;;;;;;;14.43;10.07;;;2.00;99.90;;;;;;4969904;28;20470;-72
2021/01/23 00:20:04;;;;;;;20.95;10.95;;;2.10;99.90;;;;;;4958958;28;21605;-72
2021/01/23 00:22:30;;;;;;;14.68;9.15;;;1.90;99.90;;;;;;4982438;28;20181;-73
2021/01/23 00:24:56;;;;;;;17.50;9.97;;;1.90;99.90;;;;;;4984244;28;20190;-73
2021/01/23 00:27:24;;;;;;;17.60;10.68;;;2.00;99.90;;;;;;4974116;28;20445;-73
2021/01/23 00:29:50;;;;;;;15.00;9.60;;;2.00;99.90;;;;;;4972693;28;20261;-73
2021/01/23 00:32:18;;;;;;;19.42;11.43;;;1.90;99.90;;;;;;4962969;28;21267;-72
2021/01/23 00:34:49;;;;;;;19.75;10.30;;;2.00;99.90;;;;;;4984883;28;20691;-73
2021/01/23 00:37:15;;;;;;;13.27;9.95;;;2.10;99.90;;;;;;4983688;28;20222;-72
2021/01/23 00:39:43;;;;;;;16.20;10.52;;;2.00;99.90;;;;;;4967855;28;20209;-72
2021/01/23 00:42:09;;;;;;;14.77;9.20;;;2.00;99.90;;;;;;4973257;28;20202;-73
2021/01/23 00:44:35;;;;;;;15.65;9.25;;;2.00;99.90;;;;;;4969028;28;20919;-72
2021/01/23 00:47:01;;;;;;;16.75;10.27;;;1.90;99.90;;;;;;4951157;28;20185;-73
2021/01/23 00:49:31;;;;;;;14.25;9.63;;;1.80;99.90;;;;;;4952039;28;20211;-73
2021/01/23 00:51:58;;;;;;;14.68;9.88;;;2.10;99.90;;;;;;4964428;28;20213;-72
2021/01/23 00:54:24;;;;;;;17.98;10.80;;;2.00;99.90;;;;;;4947011;28;20226;-73
2021/01/23 00:56:50;;;;;;;12.40;9.73;;;2.00;99.90;;;;;;4958827;28;20218;-73
2021/01/23 00:59:16;;;;;;;13.95;10.45;;;2.10;99.90;;;;;;4967033;28;20465;-72
2021/01/23 01:01:42;;;;;;;12.55;10.20;;;2.10;99.90;;;;;;4973973;28;20178;-72
2021/01/23 01:04:21;;;;;;;21.17;9.50;;;2.20;99.90;;;;;;4961473;28;20175;-72
2021/01/23 01:06:48;;;;;;;13.10;9.93;;;2.20;99.90;;;;;;4983114;28;20198;-72
2021/01/23 01:09:14;;;;;;;14.85;10.35;;;2.10;99.90;;;;;;4972438;28;20449;-73
2021/01/23 01:11:40;;;;;;;15.87;10.77;;;2.20;99.90;;;;;;4974325;28;20546;-72
2021/01/23 01:14:06;;;;;;;16.00;11.02;;;2.30;99.90;;;;;;4988237;28;20516;-72
2021/01/23 01:16:32;;;;;;;13.98;10.80;;;2.30;99.90;;;;;;4969260;28;20195;-72
2021/01/23 01:18:58;;;;;;;13.25;10.05;;;2.40;99.90;;;;;;4965430;28;20742;-73
2021/01/23 01:21:24;;;;;;;17.93;11.00;;;2.40;99.90;;;;;;4973565;28;20202;-72
2021/01/23 01:23:50;;;;;;;22.33;10.45;;;2.10;99.90;;;;;;4981454;28;20856;-72
2021/01/23 01:26:16;;;;;;;15.40;10.20;;;2.40;99.90;;;;;;4968516;28;20222;-73
2021/01/23 01:28:42;;;;;;;16.85;10.90;;;2.50;99.90;;;;;;4966309;28;20978;-73
2021/01/23 01:31:09;;;;;;;17.73;12.27;;;2.70;99.90;;;;;;4966270;28;20188;-72
2021/01/23 01:33:35;;;;;;;20.17;11.18;;;2.80;99.90;;;;;;4972923;28;20485;-72
2021/01/23 01:36:01;;;;;;;14.67;11.37;;;2.80;99.90;;;;;;4990024;28;20684;-73
2021/01/23 01:38:27;;;;;;;18.65;11.20;;;2.80;99.90;;;;;;4965834;28;20998;-72
2021/01/23 01:40:53;;;;;;;18.50;11.67;;;3.00;99.90;;;;;;4987338;28;20221;-74
2021/01/23 01:43:19;;;;;;;20.95;11.90;;;2.80;99.90;;;;;;4986914;28;20563;-73
2021/01/23 01:45:45;;;;;;;16.38;11.70;;;2.80;99.90;;;;;;4966305;28;20211;-73
2021/01/23 01:48:11;;;;;;;21.25;12.00;;;2.80;99.90;;;;;;4990265;28;20234;-73
2021/01/23 01:50:39;;;;;;;15.80;10.32;;;2.90;99.90;;;;;;4955135;28;20202;-73
2021/01/23 01:53:06;;;;;;;18.33;10.75;;;3.00;99.90;;;;;;4967928;28;20723;-73
2021/01/23 01:55:34;;;;;;;19.33;10.13;;;3.20;99.90;;;;;;4957090;28;20266;-73
2021/01/23 01:58:03;;;;;;;19.27;11.10;;;3.10;99.90;;;;;;4970371;28;20205;-72
2021/01/23 02:00:32;;;;;;;17.23;12.73;;;3.10;99.90;;;;;;4950198;28;20635;-73
2021/01/23 02:03:25;;;;;;;24.33;11.00;;;3.10;99.90;;;;;;4965607;28;20652;-72
2021/01/23 02:06:28;;;;;;;14.85;9.85;;;3.20;99.90;;;;;;4969065;28;20190;-73
2021/01/23 02:09:15;;;;;;;13.73;9.70;;;3.00;99.90;;;;;;4962810;28;20207;-72
2021/01/23 02:11:44;;;;;;;12.32;9.30;;;3.00;99.90;;;;;;4959461;28;20182;-72
2021/01/23 02:14:29;;;;;;;11.70;10.02;;;3.00;99.90;;;;;;4959956;28;20194;-73
2021/01/23 02:17:00;;;;;;;13.68;9.55;;;3.30;99.90;;;;;;4962303;28;20210;-72
2021/01/23 02:19:34;;;;;;;14.23;9.48;;;3.00;99.90;;;;;;4969654;28;20207;-72
2021/01/23 02:22:24;;;;;;;16.92;10.80;;;3.00;99.90;;;;;;4968848;28;20648;-73
2021/01/23 02:24:52;;;;;;;14.40;10.35;;;3.20;99.90;;;;;;4987428;28;20198;-73
2021/01/23 02:28:03;;;;;;;16.33;9.52;;;3.00;99.90;;;;;;4980591;28;20192;-73
2021/01/23 02:30:39;;;;;;;13.23;9.48;;;3.00;99.90;;;;;;4964368;28;20202;-73
2021/01/23 02:33:08;;;;;;;18.38;9.93;;;3.10;99.90;;;;;;4968413;28;20261;-73
2021/01/23 02:35:36;;;;;;;15.32;9.65;;;3.00;99.90;;;;;;4964871;28;20688;-73
2021/01/23 02:38:03;;;;;;;12.30;9.23;;;3.00;99.90;;;;;;4968330;28;20305;-72
2021/01/23 02:40:29;;;;;;;15.93;9.55;;;3.00;99.90;;;;;;4989785;28;20197;-73
2021/01/23 02:42:55;;;;;;;12.07;8.48;;;3.10;99.90;;;;;;4976644;28;20179;-73
2021/01/23 02:45:21;;;;;;;12.00;8.77;;;3.30;99.90;;;;;;4971642;28;20206;-72
2021/01/23 02:47:47;;;;;;;9.40;7.75;;;3.30;99.90;;;;;;4986242;28;20178;-73
2021/01/23 02:50:15;;;;;;;13.93;8.98;;;3.20;99.90;;;;;;4970882;28;20190;-72
2021/01/23 02:52:47;;;;;;;9.68;8.32;;;3.20;99.90;;;;;;4957604;28;20190;-72
2021/01/23 02:55:19;;;;;;;11.73;8.35;;;3.20;99.90;;;;;;4971502;28;20679;-73
2021/01/23 02:57:48;;;;;;;10.60;8.15;;;3.00;99.90;;;;;;4988383;28;20207;-72
2021/01/23 03:00:16;;;;;;;13.60;8.43;;;3.10;99.90;;;;;;4968354;28;20317;-73
2021/01/23 03:02:45;;;;;;;13.68;8.68;;;3.00;99.90;;;;;;4980766;28;20290;-73
2021/01/23 03:05:13;;;;;;;10.27;8.35;;;3.00;99.90;;;;;;4946839;28;20243;-73
2021/01/23 03:07:40;;;;;;;14.45;8.75;;;2.90;99.90;;;;;;4984281;28;20192;-73
2021/01/23 03:10:07;;;;;;;14.30;8.98;;;2.90;99.90;;;;;;4970962;28;20218;-72
2021/01/23 03:12:34;;;;;;;11.82;8.05;;;2.80;99.90;;;;;;4962948;28;20273;-73
2021/01/23 03:15:00;;;;;;;12.10;8.75;;;2.80;99.90;;;;;;4971632;28;20190;-72
2021/01/23 03:17:30;;;;;;;13.32;9.10;;;2.90;99.90;;;;;;4968933;28;20198;-73
2021/01/23 03:19:56;;;;;;;17.25;9.00;;;2.90;99.90;;;;;;4971924;28;20206;-73
2021/01/23 03:22:22;;;;;;;11.80;8.45;;;3.00;99.90;;;;;;4963625;28;20205;-73
2021/01/23 03:24:51;;;;;;;16.02;9.73;;;2.80;99.90;;;;;;4937191;28;20201;-72
2021/01/23 03:27:19;;;;;;;15.93;9.43;;;2.80;99.90;;;;;;4956313;28;20203;-73
2021/01/23 03:29:45;;;;;;;13.70;8.55;;;2.90;99.90;;;;;;4947645;28;20569;-73
2021/01/23 03:32:13;;;;;;;11.93;9.02;;;2.80;99.90;;;;;;4966862;28;20203;-73
2021/01/23 03:34:39;;;;;;;11.85;8.27;;;2.80;99.90;;;;;;4989982;28;20639;-73
2021/01/23 03:37:06;;;;;;;11.55;8.23;;;2.90;99.90;;;;;;4993517;28;20324;-73
2021/01/23 03:39:35;;;;;;;13.60;8.77;;;2.90;99.90;;;;;;4976126;28;20260;-73
2021/01/23 03:42:03;;;;;;;15.03;9.87;;;2.90;99.90;;;;;;4993200;28;20194;-73
2021/01/23 03:44:29;;;;;;;11.55;8.60;;;3.00;99.90;;;;;;4993646;28;20425;-73
2021/01/23 03:46:55;;;;;;;13.03;9.30;;;2.80;99.90;;;;;;4993443;28;20213;-73
2021/01/23 03:49:21;;;;;;;10.82;8.52;;;3.00;99.90;;;;;;4962575;28;20827;-73
2021/01/23 03:51:49;;;;;;;12.27;8.10;;;2.90;99.90;;;;;;4976692;28;20273;-73
2021/01/23 03:54:15;;;;;;;15.63;9.70;;;2.70;99.90;;;;;;5006182;28;20444;-73
2021/01/23 03:56:41;;;;;;;14.57;9.67;;;3.00;99.90;;;;;;4975179;28;20218;-73
2021/01/23 03:59:07;;;;;;;13.70;9.18;;;3.10;99.90;;;;;;4975643;28;20801;-72
2021/01/23 04:01:33;;;;;;;13.10;8.70;;;2.80;99.90;;;;;;4993217;28;20197;-72
2021/01/23 04:03:59;;;;;;;14.52;8.75;;;3.00;99.90;;;;;;4982439;28;20467;-72
2021/01/23 04:06:25;;;;;;;18.50;8.57;;;3.00;99.90;;;;;;4982777;28;20695;-73
2021/01/23 04:08:53;;;;;;;11.18;8.27;;;2.70;99.90;;;;;;4983979;28;20461;-72
2021/01/23 04:11:22;;;;;;;13.07;9.43;;;2.90;99.90;;;;;;4971911;28;20202;-72
2021/01/23 04:13:48;;;;;;;8.63;7.72;;;2.80;99.90;;;;;;4991384;28;20218;-72
2021/01/23 04:16:14;;;;;;;12.60;8.27;;;3.10;99.90;;;;;;4975285;28;20228;-72
2021/01/23 04:18:42;;;;;;;10.52;7.63;;;2.80;99.90;;;;;;4992690;28;20465;-73
2021/01/23 04:21:08;;;;;;;9.70;7.50;;;2.90;99.90;;;;;;4992714;28;20195;-72
2021/01/23 04:23:34;;;;;;;12.20;8.40;;;3.00;99.90;;;;;;4949362;28;20186;-73
2021/01/23 04:26:00;;;;;;;13.63;7.90;;;3.00;99.90;;;;;;4995700;28;20790;-72
2021/01/23 04:28:26;;;;;;;13.63;8.38;;;2.90;99.90;;;;;;4973564;28;20452;-72
2021/01/23 04:30:52;;;;;;;13.03;8.10;;;2.90;99.90;;;;;;4978757;28;20203;-72
2021/01/23 04:33:18;;;;;;;15.23;7.40;;;3.00;99.90;;;;;;4955803;28;20610;-73
2021/01/23 04:35:44;;;;;;;12.10;7.70;;;3.00;99.90;;;;;;4994531;28;20484;-73
2021/01/23 04:38:11;;;;;;;10.50;8.98;;;3.00;99.90;;;;;;4979042;28;20218;-72
2021/01/23 04:40:37;;;;;;;12.95;8.90;;;3.00;99.90;;;;;;4978289;28;20201;-72
2021/01/23 04:43:03;;;;;;;11.80;8.77;;;3.00;99.90;;;;;;5009479;28;20182;-73
2021/01/23 04:45:29;;;;;;;10.50;8.18;;;3.20;99.90;;;;;;4980738;28;20523;-72
2021/01/23 04:47:56;;;;;;;12.23;7.80;;;3.10;99.90;;;;;;4985817;28;21045;-73
2021/01/23 04:50:22;;;;;;;15.20;7.95;;;2.90;99.90;;;;;;4978485;28;20472;-72
2021/01/23 04:52:48;;;;;;;14.30;8.55;;;3.10;99.90;;;;;;4967960;28;20317;-73
2021/01/23 04:55:14;;;;;;;14.48;8.23;;;3.00;99.90;;;;;;4978953;28;20285;-73
2021/01/23 04:57:44;;;;;;;9.82;8.30;;;3.10;99.90;;;;;;4986091;28;20288;-72
2021/01/23 05:00:12;;;;;;;11.88;8.25;;;3.20;99.90;;;;;;4998106;28;20236;-73
2021/01/23 05:02:38;;;;;;;11.00;8.10;;;3.10;99.90;;;;;;4991784;28;20202;-72
2021/01/23 05:05:06;;;;;;;10.77;7.93;;;3.40;99.90;;;;;;4973965;28;20214;-72
2021/01/23 05:07:34;;;;;;;11.60;8.60;;;3.10;99.90;;;;;;4976389;28;20449;-72
2021/01/23 05:10:18;;;;;;;9.68;7.80;;;3.20;99.90;;;;;;4978442;28;20294;-72
2021/01/23 05:12:47;;;;;;;11.75;8.13;;;3.20;99.90;;;;;;4989977;28;20590;-73
2021/01/23 05:15:35;;;;;;;9.90;7.60;;;3.40;99.90;;;;;;5000181;28;20206;-73
2021/01/23 05:18:05;;;;;;;11.07;8.00;;;3.30;99.90;;;;;;4980844;28;20567;-73
2021/01/23 05:20:32;;;;;;;9.90;8.18;;;3.30;99.90;;;;;;4973363;28;20273;-73
2021/01/23 05:23:00;;;;;;;9.95;7.97;;;3.40;99.90;;;;;;5000292;28;20203;-73
2021/01/23 05:25:29;;;;;;;10.27;8.48;;;3.60;99.90;;;;;;4960330;28;20179;-73
2021/01/23 05:27:56;;;;;;;10.50;8.50;;;3.30;99.90;;;;;;4966691;28;20182;-73
2021/01/23 05:30:23;;;;;;;11.65;9.55;;;3.30;99.90;;;;;;4990365;28;20198;-74
2021/01/23 05:33:04;;;;;;;11.05;8.77;;;3.60;99.90;;;;;;4974211;28;20288;-73
2021/01/23 05:35:30;;;;;;;10.35;7.75;;;3.60;99.90;;;;;;4973755;28;20193;-73
2021/01/23 05:37:56;;;;;;;11.57;8.63;;;3.60;99.90;;;;;;4967494;28;20245;-73
2021/01/23 05:40:31;;;;;;;14.52;8.60;;;3.40;99.90;;;;;;4971518;28;20184;-73
2021/01/23 05:42:57;;;;;;;13.18;8.68;;;3.40;99.90;;;;;;4997737;28;20182;-73
2021/01/23 05:45:23;;;;;;;12.53;8.70;;;3.40;99.90;;;;;;4985459;28;20225;-73
2021/01/23 05:47:49;;;;;;;16.30;9.57;;;3.50;99.90;;;;;;4997299;28;20484;-73
2021/01/23 05:50:16;;;;;;;10.82;8.43;;;3.40;99.90;;;;;;4991412;28;20194;-73
2021/01/23 05:52:44;;;;;;;11.45;8.45;;;3.50;99.90;;;;;;4972297;28;20198;-73
2021/01/23 05:55:10;;;;;;;10.43;8.43;;;3.60;99.90;;;;;;4961442;28;20244;-73
2021/01/23 05:57:37;;;;;;;11.20;8.75;;;3.60;99.90;;;;;;4977940;28;20465;-73
2021/01/23 06:00:05;;;;;;;12.20;9.10;;;3.60;99.90;;;;;;4958756;28;20206;-73
2021/01/23 06:02:35;;;;;;;10.35;8.43;;;3.50;99.90;;;;;;4979266;28;20705;-73
2021/01/23 06:05:02;;;;;;;16.80;9.45;;;3.70;99.90;;;;;;4994102;28;20233;-73
2021/01/23 06:07:44;;;;;;;11.55;8.85;;;3.50;99.90;;;;;;4956945;28;20573;-73
2021/01/23 06:10:22;;;;;;;12.48;8.95;;;3.50;99.90;;;;;;4966281;28;20201;-73
2021/01/23 06:12:55;;;;;;;11.50;8.02;;;3.60;99.90;;;;;;5073938;28;20614;-73
2021/01/23 06:15:35;;;;;;;13.52;9.00;;;3.40;99.90;;;;;;5066275;28;20180;-73
2021/01/23 06:18:27;;;;;;;10.43;7.93;;;3.70;99.90;;;;;;5080283;28;20219;-73
2021/01/23 06:20:59;;;;;;;11.15;8.45;;;3.60;99.90;;;;;;5082613;28;20248;-73
2021/01/23 06:23:51;;;;;;;12.68;9.40;;;3.30;99.90;;;;;;5075712;28;20556;-73
2021/01/23 06:26:18;;;;;;;11.35;8.48;;;3.40;99.90;;;;;;5048283;28;20222;-73
2021/01/23 06:28:44;;;;;;;17.83;9.70;;;3.40;99.90;;;;;;5072990;28;20207;-73
2021/01/23 06:31:31;;;;;;;11.33;8.50;;;3.60;99.90;;;;;;5074812;28;20252;-73
2021/01/23 06:33:58;;;;;;;11.25;8.98;;;3.70;99.90;;;;;;5057439;28;20503;-73
2021/01/23 06:36:24;;;;;;;12.00;8.52;;;3.80;99.90;;;;;;5070150;28;20190;-73
2021/01/23 06:39:12;;;;;;;13.15;9.00;;;3.50;99.90;;;;;;5083335;28;20534;-73
2021/01/23 06:41:40;;;;;;;14.93;9.93;;;3.60;99.90;;;;;;5061545;28;20249;-74
2021/01/23 06:44:06;;;;;;;15.85;9.52;;;3.60;99.90;;;;;;5062179;28;20680;-73
2021/01/23 06:46:37;;;;;;;10.55;8.27;;;3.60;99.90;;;;;;5064181;28;20188;-73
2021/01/23 06:49:04;;;;;;;9.80;8.30;;;3.60;99.90;;;;;;5070770;28;20208;-74
2021/01/23 06:51:31;;;;;;;12.25;8.73;;;3.80;99.90;;;;;;5067945;28;20206;-74
2021/01/23 06:54:22;;;;;;;12.00;8.73;;;3.80;99.90;;;;;;5068580;28;20772;-73
2021/01/23 06:56:53;;;;;;;11.27;7.78;;;3.70;99.90;;;;;;5065846;28;20218;-73
2021/01/23 06:59:23;;;;;;;12.55;8.15;;;3.80;99.90;;;;;;5048531;28;20684;-73
2021/01/23 07:02:01;;;;;;;12.63;8.13;;;3.70;99.90;;;;;;5071223;28;20191;-73
2021/01/23 07:04:29;;;;;;;15.88;9.60;;;3.80;99.90;;;;;;5071255;28;20207;-73
2021/01/23 07:06:56;;;;;;;14.88;9.70;;;3.60;99.90;;;;;;5064601;28;20211;-73
2021/01/23 07:09:47;;;;;;;14.25;9.57;;;3.70;99.90;;;;;;5068803;28;20203;-73
2021/01/23 07:12:42;;;;;;;15.57;9.35;;;3.70;99.90;;;;;;5065116;28;20251;-73
2021/01/23 07:15:36;;;;;;;15.05;10.18;;;3.70;99.90;;;;;;5064543;28;20271;-73
2021/01/23 07:18:13;;;;;;;17.25;9.38;;;3.70;99.90;;;;;;5062809;28;20230;-73
2021/01/23 07:20:39;;;;;;;12.57;10.00;;;3.70;99.90;;;;;;5070321;28;20280;-73
2021/01/23 07:23:08;;;;;;;18.60;9.60;;;3.80;99.90;;;;;;5068346;28;20199;-74
2021/01/23 07:25:34;;;;;;;13.32;9.20;;;3.80;99.90;;;;;;5050538;28;20185;-73
2021/01/23 07:28:00;;;;;;;12.73;8.30;;;3.80;99.90;;;;;;5048556;28;20200;-73
2021/01/23 07:30:27;;;;;;;11.23;8.63;;;4.00;99.90;;;;;;5062280;28;20438;-73
2021/01/23 07:32:55;;;;;;;12.38;8.93;;;3.80;99.90;;;;;;5060383;28;20208;-73
2021/01/23 07:35:21;;;;;;;12.77;8.82;;;3.80;99.90;;;;;;5060767;28;20642;-73
2021/01/23 07:37:52;;;;;;;14.30;9.23;;;3.80;99.90;;;;;;5050348;28;20219;-77
2021/01/23 07:40:29;;;;;;;13.68;9.30;;;3.90;99.90;;;;;;5055773;28;20784;-76
2021/01/23 07:43:02;;;;;;;18.00;9.70;;;4.00;99.90;;;;;;5057977;28;20206;-76
2021/01/23 07:45:28;;;;;;;13.40;8.40;;;3.70;99.90;;;;;;5051658;28;20439;-76
2021/01/23 07:48:06;;;;;;;17.17;9.23;;;3.80;99.90;;;;;;5061671;28;20627;-76
2021/01/23 07:50:43;;;;;;;13.70;10.00;;;3.80;99.90;;;;;;5056600;28;20261;-76
2021/01/23 07:53:23;;;;;;;12.02;8.50;;;3.80;99.90;;;;;;5057153;28;20188;-76
2021/01/23 07:55:50;;;;;;;12.27;8.55;;;3.90;99.90;;;;;;5039434;28;20179;-76
2021/01/23 07:58:17;;;;;;;15.15;9.35;;;3.90;99.90;;;;;;5052325;28;20339;-76
2021/01/23 08:00:46;;;;;;;12.98;9.55;;;4.00;99.90;;;;;;5069081;28;20214;-77
2021/01/23 08:03:13;;;;;;;15.60;9.50;;;4.10;99.90;;;;;;5058202;28;20184;-77
2021/01/23 08:05:47;;;;;;;12.27;8.85;;;4.10;99.90;;;;;;5043247;28;20184;-76
2021/01/23 08:08:32;;;;;;;15.52;9.27;;;4.00;99.90;;;;;;5053127;28;20211;-77
2021/01/23 08:10:59;;;;;;;13.45;9.25;;;4.10;99.90;;;;;;5061943;28;20251;-76
2021/01/23 08:13:27;;;;;;;11.35;8.13;;;3.80;99.90;;;;;;5066933;28;20824;-76
2021/01/23 08:16:12;;;;;;;15.80;10.25;;;4.20;99.90;;;;;;5058960;28;20216;-76
2021/01/23 08:18:39;;;;;;;10.77;9.00;;;3.90;99.90;;;;;;5047590;28;20235;-74
2021/01/23 08:21:21;;;;;;;14.77;9.43;;;3.90;99.90;;;;;;5049607;28;20200;-73
2021/01/23 08:23:48;;;;;;;13.65;10.25;;;4.10;99.90;;;;;;5055384;28;20287;-74
2021/01/23 08:26:16;;;;;;;13.02;9.23;;;3.90;99.90;;;;;;5042354;28;20199;-74
2021/01/23 08:28:44;;;;;;;15.35;9.25;;;3.90;99.90;;;;;;5057718;28;20220;-74
2021/01/23 08:31:18;;;;;;;16.52;9.75;;;4.00;99.90;;;;;;5064250;28;20212;-74
2021/01/23 08:33:54;;;;;;;19.05;10.05;;;4.10;99.90;;;;;;5059407;28;20209;-75
2021/01/23 08:36:25;;;;;;;15.38;9.57;;;3.90;99.90;;;;;;5043267;28;20195;-74
2021/01/23 08:39:03;;;;;;;12.15;8.98;;;4.00;99.90;;;;;;5046163;28;20204;-73
2021/01/23 08:41:35;;;;;;;11.82;9.05;;;4.10;99.90;;;;;;5067656;28;20699;-75
2021/01/23 08:44:01;;;;;;;12.10;9.82;;;4.10;99.90;;;;;;5050988;28;20196;-75
2021/01/23 08:46:30;;;;;;;14.45;9.40;;;4.20;99.90;;;;;;5049364;28;20203;-74
2021/01/23 08:48:57;;;;;;;12.73;9.07;;;4.20;99.90;;;;;;5051319;28;20590;-74
2021/01/23 08:51:24;;;;;;;18.35;8.70;;;4.30;99.90;;;;;;5068342;28;20472;-73
2021/01/23 08:53:53;;;;;;;11.50;8.73;;;4.40;99.90;;;;;;5047548;28;20172;-73
2021/01/23 08:56:19;;;;;;;15.32;8.63;;;4.30;99.90;;;;;;5032912;28;20219;-73
2021/01/23 08:58:45;;;;;;;12.82;8.93;;;4.30;99.90;;;;;;5048753;28;20233;-74
2021/01/23 09:01:14;;;;;;;12.65;8.65;;;4.30;99.90;;;;;;5050229;28;20201;-73
2021/01/23 09:03:43;;;;;;;11.52;8.88;;;4.50;99.90;;;;;;5038036;28;20212;-72
2021/01/23 09:06:10;;;;;;;11.52;9.32;;;4.50;99.90;;;;;;5058820;28;20204;-72
2021/01/23 09:08:36;;;;;;;13.40;8.75;;;4.60;99.90;;;;;;5056354;28;20219;-72
2021/01/23 09:11:02;;;;;;;13.07;7.82;;;4.60;99.90;;;;;;5061892;28;20241;-73
2021/01/23 09:13:31;;;;;;;9.10;7.03;;;4.50;99.90;;;;;;5052891;28;20208;-74
2021/01/23 09:15:57;;;;;;;11.80;7.85;;;4.50;99.90;;;;;;5058128;28;20567;-74
2021/01/23 09:18:26;;;;;;;13.73;8.88;;;4.60;99.90;;;;;;5045556;28;20202;-74
2021/01/23 09:20:52;;;;;;;11.27;8.02;;;4.70;99.90;;;;;;5066967;28;20200;-73
2021/01/23 09:23:18;;;;;;;16.05;8.65;;;4.70;99.90;;;;;;5057994;28;20196;-74
2021/01/23 09:25:44;;;;;;;11.50;7.70;;;4.80;99.90;;;;;;5020752;28;20189;-73
2021/01/23 09:28:12;;;;;;;11.15;8.38;;;4.90;99.90;;;;;;5042367;28;20458;-75
2021/01/23 09:30:38;;;;;;;11.32;7.93;;;4.90;99.90;;;;;;5066560;28;20269;-74
2021/01/23 09:33:04;;;;;;;13.77;9.57;;;4.90;99.90;;;;;;5052367;28;20271;-74
2021/01/23 09:35:30;;;;;;;13.85;8.60;;;5.00;99.90;;;;;;5051853;28;20537;-73
2021/01/23 09:37:56;;;;;;;11.90;8.20;;;5.00;99.90;;;;;;5047411;28;20193;-73
2021/01/23 09:40:22;;;;;;;14.17;8.93;;;5.00;99.90;;;;;;5050041;28;20208;-73
2021/01/23 09:42:48;;;;;;;14.27;9.07;;;5.00;99.90;;;;;;5056599;28;20430;-74
2021/01/23 09:45:14;;;;;;;17.45;9.60;;;5.00;99.90;;;;;;5049719;28;20426;-77
2021/01/23 09:47:41;;;;;;;16.60;10.82;;;5.10;99.90;;;;;;5038941;28;20226;-77
2021/01/23 09:50:07;;;;;;;18.55;10.43;;;5.10;99.90;;;;;;5063048;28;20616;-77
2021/01/23 09:52:33;;;;;;;18.60;10.30;;;5.20;99.90;;;;;;5057388;28;20289;-77
2021/01/23 09:54:59;;;;;;;12.05;8.30;;;5.40;99.90;;;;;;5047531;28;20196;-77
2021/01/23 09:57:25;;;;;;;13.43;8.67;;;5.20;99.90;;;;;;5049094;28;20188;-77
2021/01/23 09:59:54;;;;;;;13.05;9.40;;;5.20;99.90;;;;;;5051129;28;20457;-76
2021/01/23 10:02:20;;;;;;;12.85;9.15;;;5.20;99.90;;;;;;5056037;28;20266;-77
2021/01/23 10:04:47;;;;;;;12.60;8.43;;;5.40;99.90;;;;;;5046318;28;20403;-77
2021/01/23 10:07:13;;;;;;;11.68;8.88;;;5.30;99.90;;;;;;5048972;28;20612;-77
2021/01/23 10:09:39;;;;;;;12.23;8.80;;;5.30;99.90;;;;;;5047090;28;20755;-77
2021/01/23 10:12:08;;;;;;;10.48;8.50;;;5.40;99.90;;;;;;5049639;28;20228;-77
2021/01/23 10:14:34;;;;;;;12.27;9.68;;;5.40;99.90;;;;;;5022960;28;20261;-77
2021/01/23 10:17:01;;;;;;;10.43;8.10;;;5.50;99.90;;;;;;5040475;28;20184;-77
2021/01/23 10:19:29;;;;;;;10.90;8.32;;;5.60;99.90;;;;;;5033206;28;20289;-77
2021/01/23 10:21:57;;;;;;;10.80;8.02;;;5.70;99.90;;;;;;5042962;28;20188;-77
2021/01/23 10:24:29;;;;;;;11.70;7.68;;;5.80;99.90;;;;;;5031287;28;20225;-76
2021/01/23 10:26:55;;;;;;;10.18;7.93;;;5.80;99.90;;;;;;5055272;28;20258;-77
2021/01/23 10:29:21;;;;;;;13.23;8.05;;;5.90;99.90;;;;;;5057281;28;20626;-77
2021/01/23 10:31:47;;;;;;;13.45;8.27;;;6.00;99.90;;;;;;5045060;28;20205;-77
2021/01/23 10:34:16;;;;;;;11.93;8.55;;;6.20;99.90;;;;;;5040680;28;20177;-77
2021/01/23 10:36:42;;;;;;;11.07;7.97;;;6.20;99.90;;;;;;5044658;28;20195;-77
2021/01/23 10:39:10;;;;;;;10.70;7.83;;;6.30;99.90;;;;;;5024602;28;20200;-76
2021/01/23 10:41:36;;;;;;;10.07;8.35;;;6.30;99.90;;;;;;5032023;28;20513;-77
2021/01/23 10:44:02;;;;;;;11.10;8.47;;;6.40;99.90;;;;;;5042067;28;20268;-77
2021/01/23 10:46:31;;;;;;;13.38;9.82;;;6.50;99.90;;;;;;5039790;28;20493;-77
2021/01/23 10:48:57;;;;;;;10.75;7.22;;;6.50;99.90;;;;;;5048825;28;20231;-77
2021/01/23 10:51:24;;;;;;;8.75;7.38;;;6.50;99.90;;;;;;5042835;28;20212;-76
2021/01/23 10:53:50;;;;;;;9.00;7.97;;;6.50;99.90;;;;;;5044806;28;20189;-77
2021/01/23 10:56:16;;;;;;;8.30;7.47;;;6.50;99.90;;;;;;5034345;28;20243;-77
2021/01/23 10:58:42;;;;;;;8.38;7.55;;;6.50;99.90;;;;;;5056173;28;20966;-77
2021/01/23 11:01:08;;;;;;;11.30;7.28;;;6.50;99.90;;;;;;5051919;28;20638;-77
2021/01/23 11:03:36;;;;;;;9.70;7.00;;;6.50;99.90;;;;;;5053956;28;20216;-76
2021/01/23 11:06:02;;;;;;;8.17;7.00;;;6.60;99.90;;;;;;5056506;28;20558;-78
2021/01/23 11:08:30;;;;;;;13.32;9.75;;;6.60;99.90;;;;;;5056030;28;20455;-78
2021/01/23 11:10:56;;;;;;;12.33;7.03;;;6.60;99.90;;;;;;5050204;28;20231;-82
2021/01/23 11:13:22;;;;;;;8.52;6.82;;;6.70;99.90;;;;;;5043943;28;20427;-83
2021/01/23 11:15:49;;;;;;;6.53;5.82;;;6.80;99.90;;;;;;5064517;28;20702;-80
2021/01/23 11:18:15;;;;;;;6.82;5.57;;;6.70;99.90;;;;;;5069299;28;20208;-80
2021/01/23 11:20:41;;;;;;;7.95;6.55;;;6.80;99.90;;;;;;5041140;28;20210;-80
2021/01/23 11:23:07;;;;;;;8.00;7.20;;;6.90;99.90;;;;;;5050724;28;20188;-80
2021/01/23 11:25:33;;;;;;;8.63;6.05;;;7.00;99.90;;;;;;5063894;28;20188;-79
2021/01/23 11:27:59;;;;;;;7.13;6.30;;;7.10;99.90;;;;;;5053137;28;20199;-77
2021/01/23 11:30:25;;;;;;;7.00;6.40;;;7.20;99.90;;;;;;5043340;28;20666;-79
2021/01/23 11:32:52;;;;;;;10.52;6.40;;;7.20;99.90;;;;;;5061547;28;20519;-78
2021/01/23 11:35:22;;;;;;;22.90;12.43;;;7.30;99.90;;;;;;5063268;28;20195;-77
2021/01/23 11:37:48;;;;;;;13.23;7.60;;;7.40;99.90;;;;;;5049619;28;20193;-78
2021/01/23 11:40:14;;;;;;;30.50;14.50;;;7.50;99.90;;;;;;5038108;28;20720;-78
2021/01/23 11:42:41;;;;;;;8.95;7.20;;;7.60;99.90;;;;;;5062258;28;20191;-78
2021/01/23 11:45:08;;;;;;;8.82;7.93;;;7.60;99.90;;;;;;5059191;28;20254;-78
2021/01/23 11:47:35;;;;;;;10.23;7.90;;;7.60;99.90;;;;;;5065144;28;20217;-78
2021/01/23 11:50:02;;;;;;;9.95;7.32;;;7.70;99.90;;;;;;5062767;28;20212;-82
2021/01/23 11:52:30;;;;;;;10.97;7.13;;;7.70;99.90;;;;;;5051250;28;20216;-79
2021/01/23 11:54:56;;;;;;;9.90;7.77;;;7.70;99.90;;;;;;5065907;28;20442;-77
2021/01/23 11:57:25;;;;;;;10.40;7.17;;;7.80;99.90;;;;;;5043361;28;20427;-78
2021/01/23 11:59:51;;;;;;;7.13;6.38;;;7.80;99.90;;;;;;5061278;28;20574;-82
2021/01/23 12:02:17;;;;;;;7.18;5.68;;;7.80;99.90;;;;;;5050022;28;20208;-82
2021/01/23 12:04:45;;;;;;;6.60;5.90;;;7.70;99.90;;;;;;5074834;22;20893;-77
2021/01/23 12:07:16;;;;;;;21.43;12.83;;;7.60;99.90;;;;;;5004086;28;20218;-75
2021/01/23 12:09:43;;;;;;;8.27;7.35;;;7.50;99.90;;;;;;5013013;28;20463;-77
2021/01/23 12:12:12;;;;;;;9.32;7.40;;;7.50;99.90;;;;;;4994036;28;20253;-75
2021/01/23 12:14:38;;;;;;;12.50;7.28;;;7.50;99.90;;;;;;4989978;28;20357;-76
2021/01/23 12:17:04;;;;;;;13.77;8.85;;;7.40;99.90;;;;;;4994355;28;20198;-77
2021/01/23 12:19:34;;;;;;;6.78;6.13;;;7.50;99.90;;;;;;4997562;28;20207;-77
2021/01/23 12:22:01;;;;;;;8.60;5.15;;;7.50;99.90;;;;;;4977962;28;20540;-77
2021/01/23 12:24:28;;;;;;;5.43;5.00;;;7.50;99.90;;;;;;5002133;28;20202;-77
2021/01/23 12:26:54;;;;;;;5.55;5.15;;;7.60;99.90;;;;;;4994325;28;20464;-77
2021/01/23 12:29:20;;;;;;;5.73;5.23;;;7.50;99.90;;;;;;5015411;28;20607;-77
2021/01/23 12:31:46;;;;;;;5.93;5.20;;;7.60;99.90;;;;;;4986541;28;20512;-77
2021/01/23 12:34:15;;;;;;;6.15;5.65;;;7.70;99.90;;;;;;4966642;28;20218;-78
2021/01/23 12:36:46;;;;;;;8.27;5.40;;;7.70;99.90;;;;;;5026810;28;20266;-78
2021/01/23 12:39:12;;;;;;;6.55;5.95;;;7.70;99.90;;;;;;4988570;28;20222;-77
2021/01/23 12:41:38;;;;;;;6.75;6.00;;;7.60;99.90;;;;;;5013488;28;20207;-79
2021/01/23 12:44:04;;;;;;;5.72;5.15;;;7.60;99.90;;;;;;5014475;28;20659;-78
2021/01/23 12:46:30;;;;;;;6.40;5.10;;;7.60;99.90;;;;;;5005647;28;20187;-77
2021/01/23 12:48:57;;;;;;;6.25;5.22;;;7.50;99.90;;;;;;5003277;28;20225;-79
2021/01/23 12:51:23;;;;;;;5.68;5.28;;;7.40;99.90;;;;;;4996982;28;20245;-78
2021/01/23 12:53:49;;;;;;;6.40;5.68;;;7.40;99.90;;;;;;5014045;28;20284;-78